sensor_id;sensor_type;location;lat;lon;timestamp;P1;durP1;ratioP1;P2;durP2;ratioP2
4700;SDS011;8724;51.272;6.554;2023-05-20T00:00:14;3.83;;;2.60;;
4700;SDS011;8724;51.272;6.554;2023-05-20T00:02:43;3.20;;;2.20;;
4700;SDS011;8724;51.272;6.554;2023-05-20T00:05:12;3.50;;;2.87;;
4700;SDS011;8724;51.272;6.554;2023-05-20T00:07:40;5.47;;;2.87;;
4700;SDS011;8724;51.272;6.554;2023-05-20T00:10:09;2.90;;;2.30;;
4700;SDS011;8724;51.272;6.554;2023-05-20T00:12:37;4.47;;;2.50;;
4700;SDS011;8724;51.272;6.554;2023-05-20T00:15:06;3.77;;;2.90;;
4700;SDS011;8724;51.272;6.554;2023-05-20T00:17:37;2.50;;;2.23;;
4700;SDS011;8724;51.272;6.554;2023-05-20T00:20:07;3.90;;;2.63;;
4700;SDS011;8724;51.272;6.554;2023-05-20T00:22:36;3.67;;;2.90;;
4700;SDS011;8724;51.272;6.554;2023-05-20T00:25:05;3.90;;;2.67;;
4700;SDS011;8724;51.272;6.554;2023-05-20T00:27:34;4.13;;;3.00;;
4700;SDS011;8724;51.272;6.554;2023-05-20T00:30:02;9.13;;;2.97;;
4700;SDS011;8724;51.272;6.554;2023-05-20T00:32:31;2.97;;;2.37;;
4700;SDS011;8724;51.272;6.554;2023-05-20T00:35:00;3.57;;;2.43;;
4700;SDS011;8724;51.272;6.554;2023-05-20T00:37:30;2.60;;;2.23;;
4700;SDS011;8724;51.272;6.554;2023-05-20T00:39:59;3.67;;;2.43;;
4700;SDS011;8724;51.272;6.554;2023-05-20T00:42:27;4.53;;;2.50;;
4700;SDS011;8724;51.272;6.554;2023-05-20T00:44:56;3.20;;;2.50;;
4700;SDS011;8724;51.272;6.554;2023-05-20T00:47:26;5.00;;;2.27;;
4700;SDS011;8724;51.272;6.554;2023-05-20T00:49:57;3.13;;;2.27;;
4700;SDS011;8724;51.272;6.554;2023-05-20T00:52:27;2.93;;;2.10;;
4700;SDS011;8724;51.272;6.554;2023-05-20T00:54:59;3.50;;;2.70;;
4700;SDS011;8724;51.272;6.554;2023-05-20T00:57:27;3.10;;;2.57;;
4700;SDS011;8724;51.272;6.554;2023-05-20T00:59:56;4.30;;;2.70;;
4700;SDS011;8724;51.272;6.554;2023-05-20T01:02:25;3.87;;;2.13;;
4700;SDS011;8724;51.272;6.554;2023-05-20T01:04:53;3.83;;;2.70;;
4700;SDS011;8724;51.272;6.554;2023-05-20T01:07:22;2.50;;;2.00;;
4700;SDS011;8724;51.272;6.554;2023-05-20T01:09:51;3.63;;;2.47;;
4700;SDS011;8724;51.272;6.554;2023-05-20T01:12:24;4.30;;;1.93;;
4700;SDS011;8724;51.272;6.554;2023-05-20T01:14:58;2.97;;;2.03;;
4700;SDS011;8724;51.272;6.554;2023-05-20T01:17:32;3.50;;;2.77;;
4700;SDS011;8724;51.272;6.554;2023-05-20T01:20:04;4.50;;;2.00;;
4700;SDS011;8724;51.272;6.554;2023-05-20T01:22:37;2.23;;;2.03;;
4700;SDS011;8724;51.272;6.554;2023-05-20T01:25:08;3.83;;;2.20;;
4700;SDS011;8724;51.272;6.554;2023-05-20T01:27:36;3.60;;;2.40;;
4700;SDS011;8724;51.272;6.554;2023-05-20T01:30:06;2.77;;;2.30;;
4700;SDS011;8724;51.272;6.554;2023-05-20T01:32:35;2.57;;;2.37;;
4700;SDS011;8724;51.272;6.554;2023-05-20T01:35:07;3.57;;;2.80;;
4700;SDS011;8724;51.272;6.554;2023-05-20T01:37:38;2.30;;;2.10;;
4700;SDS011;8724;51.272;6.554;2023-05-20T01:40:08;3.97;;;2.37;;
4700;SDS011;8724;51.272;6.554;2023-05-20T01:42:40;4.10;;;2.33;;
4700;SDS011;8724;51.272;6.554;2023-05-20T01:45:10;3.20;;;2.73;;
4700;SDS011;8724;51.272;6.554;2023-05-20T01:47:38;5.10;;;3.10;;
4700;SDS011;8724;51.272;6.554;2023-05-20T01:50:07;6.33;;;3.20;;
4700;SDS011;8724;51.272;6.554;2023-05-20T01:52:37;6.43;;;2.80;;
4700;SDS011;8724;51.272;6.554;2023-05-20T01:55:06;6.03;;;3.00;;
4700;SDS011;8724;51.272;6.554;2023-05-20T01:57:35;3.63;;;2.70;;
4700;SDS011;8724;51.272;6.554;2023-05-20T02:00:04;6.47;;;3.00;;
4700;SDS011;8724;51.272;6.554;2023-05-20T02:02:42;4.60;;;3.27;;
4700;SDS011;8724;51.272;6.554;2023-05-20T02:05:12;4.30;;;3.17;;
4700;SDS011;8724;51.272;6.554;2023-05-20T02:07:43;4.43;;;2.90;;
4700;SDS011;8724;51.272;6.554;2023-05-20T02:10:12;6.10;;;2.90;;
4700;SDS011;8724;51.272;6.554;2023-05-20T02:12:40;7.47;;;3.73;;
4700;SDS011;8724;51.272;6.554;2023-05-20T02:15:09;4.70;;;3.50;;
4700;SDS011;8724;51.272;6.554;2023-05-20T02:17:39;3.10;;;2.57;;
4700;SDS011;8724;51.272;6.554;2023-05-20T02:20:09;3.67;;;2.90;;
4700;SDS011;8724;51.272;6.554;2023-05-20T02:22:39;5.03;;;3.50;;
4700;SDS011;8724;51.272;6.554;2023-05-20T02:25:11;4.20;;;2.80;;
4700;SDS011;8724;51.272;6.554;2023-05-20T02:27:39;3.53;;;3.17;;
4700;SDS011;8724;51.272;6.554;2023-05-20T02:30:08;3.80;;;3.40;;
4700;SDS011;8724;51.272;6.554;2023-05-20T02:32:37;3.73;;;2.50;;
4700;SDS011;8724;51.272;6.554;2023-05-20T02:35:05;8.03;;;3.13;;
4700;SDS011;8724;51.272;6.554;2023-05-20T02:37:34;6.33;;;3.27;;
4700;SDS011;8724;51.272;6.554;2023-05-20T02:40:05;4.03;;;2.70;;
4700;SDS011;8724;51.272;6.554;2023-05-20T02:42:39;3.60;;;2.50;;
4700;SDS011;8724;51.272;6.554;2023-05-20T02:45:08;4.13;;;2.90;;
4700;SDS011;8724;51.272;6.554;2023-05-20T02:47:37;5.63;;;2.67;;
4700;SDS011;8724;51.272;6.554;2023-05-20T02:50:06;3.30;;;2.77;;
4700;SDS011;8724;51.272;6.554;2023-05-20T02:52:36;5.30;;;3.33;;
4700;SDS011;8724;51.272;6.554;2023-05-20T02:55:06;3.47;;;2.90;;
4700;SDS011;8724;51.272;6.554;2023-05-20T02:57:35;3.77;;;3.00;;
4700;SDS011;8724;51.272;6.554;2023-05-20T03:00:08;3.70;;;2.90;;
4700;SDS011;8724;51.272;6.554;2023-05-20T03:02:38;3.07;;;2.37;;
4700;SDS011;8724;51.272;6.554;2023-05-20T03:05:07;3.40;;;2.57;;
4700;SDS011;8724;51.272;6.554;2023-05-20T03:07:36;6.40;;;2.90;;
4700;SDS011;8724;51.272;6.554;2023-05-20T03:10:05;3.40;;;2.30;;
4700;SDS011;8724;51.272;6.554;2023-05-20T03:12:37;5.37;;;2.67;;
4700;SDS011;8724;51.272;6.554;2023-05-20T03:15:09;3.97;;;2.80;;
4700;SDS011;8724;51.272;6.554;2023-05-20T03:17:38;4.50;;;2.83;;
4700;SDS011;8724;51.272;6.554;2023-05-20T03:20:07;3.40;;;2.77;;
4700;SDS011;8724;51.272;6.554;2023-05-20T03:22:39;3.57;;;2.57;;
4700;SDS011;8724;51.272;6.554;2023-05-20T03:25:07;4.17;;;2.90;;
4700;SDS011;8724;51.272;6.554;2023-05-20T03:27:36;3.43;;;2.53;;
4700;SDS011;8724;51.272;6.554;2023-05-20T03:30:05;3.27;;;2.67;;
4700;SDS011;8724;51.272;6.554;2023-05-20T03:32:36;2.70;;;2.33;;
4700;SDS011;8724;51.272;6.554;2023-05-20T03:35:06;6.13;;;2.40;;
4700;SDS011;8724;51.272;6.554;2023-05-20T03:37:35;5.77;;;2.53;;
4700;SDS011;8724;51.272;6.554;2023-05-20T03:40:04;3.27;;;2.40;;
4700;SDS011;8724;51.272;6.554;2023-05-20T03:42:34;7.50;;;3.03;;
4700;SDS011;8724;51.272;6.554;2023-05-20T03:45:03;5.90;;;2.40;;
4700;SDS011;8724;51.272;6.554;2023-05-20T03:47:39;6.03;;;2.53;;
4700;SDS011;8724;51.272;6.554;2023-05-20T03:50:08;6.13;;;2.70;;
4700;SDS011;8724;51.272;6.554;2023-05-20T03:52:37;6.83;;;2.43;;
4700;SDS011;8724;51.272;6.554;2023-05-20T03:55:07;4.53;;;2.50;;
4700;SDS011;8724;51.272;6.554;2023-05-20T03:57:36;3.80;;;2.50;;
4700;SDS011;8724;51.272;6.554;2023-05-20T04:00:05;5.00;;;3.40;;
4700;SDS011;8724;51.272;6.554;2023-05-20T04:02:43;3.20;;;2.67;;
4700;SDS011;8724;51.272;6.554;2023-05-20T04:05:15;4.23;;;2.70;;
4700;SDS011;8724;51.272;6.554;2023-05-20T04:07:45;3.23;;;2.23;;
4700;SDS011;8724;51.272;6.554;2023-05-20T04:10:17;4.83;;;3.27;;
4700;SDS011;8724;51.272;6.554;2023-05-20T04:12:46;3.43;;;2.90;;
4700;SDS011;8724;51.272;6.554;2023-05-20T04:15:14;5.33;;;2.80;;
4700;SDS011;8724;51.272;6.554;2023-05-20T04:18:02;3.77;;;2.50;;
4700;SDS011;8724;51.272;6.554;2023-05-20T04:20:32;4.03;;;2.90;;
4700;SDS011;8724;51.272;6.554;2023-05-20T04:23:00;3.20;;;2.90;;
4700;SDS011;8724;51.272;6.554;2023-05-20T04:25:29;6.40;;;3.13;;
4700;SDS011;8724;51.272;6.554;2023-05-20T04:27:58;6.23;;;2.97;;
4700;SDS011;8724;51.272;6.554;2023-05-20T04:30:27;6.57;;;2.93;;
4700;SDS011;8724;51.272;6.554;2023-05-20T04:32:59;4.43;;;2.70;;
4700;SDS011;8724;51.272;6.554;2023-05-20T04:35:31;5.67;;;2.97;;
4700;SDS011;8724;51.272;6.554;2023-05-20T04:38:03;5.13;;;2.47;;
4700;SDS011;8724;51.272;6.554;2023-05-20T04:40:32;3.80;;;2.73;;
4700;SDS011;8724;51.272;6.554;2023-05-20T04:43:00;3.13;;;2.43;;
4700;SDS011;8724;51.272;6.554;2023-05-20T04:45:29;6.90;;;2.50;;
4700;SDS011;8724;51.272;6.554;2023-05-20T04:47:59;2.80;;;2.53;;
4700;SDS011;8724;51.272;6.554;2023-05-20T04:50:27;3.10;;;2.23;;
4700;SDS011;8724;51.272;6.554;2023-05-20T04:52:57;3.80;;;2.90;;
4700;SDS011;8724;51.272;6.554;2023-05-20T04:55:26;3.33;;;2.43;;
4700;SDS011;8724;51.272;6.554;2023-05-20T04:57:56;5.80;;;2.40;;
4700;SDS011;8724;51.272;6.554;2023-05-20T05:00:24;3.90;;;2.83;;
4700;SDS011;8724;51.272;6.554;2023-05-20T05:02:53;6.93;;;2.60;;
4700;SDS011;8724;51.272;6.554;2023-05-20T05:05:22;2.50;;;2.30;;
4700;SDS011;8724;51.272;6.554;2023-05-20T05:07:51;3.20;;;2.80;;
4700;SDS011;8724;51.272;6.554;2023-05-20T05:10:22;3.10;;;2.53;;
4700;SDS011;8724;51.272;6.554;2023-05-20T05:12:50;3.20;;;2.77;;
4700;SDS011;8724;51.272;6.554;2023-05-20T05:15:20;7.40;;;3.33;;
4700;SDS011;8724;51.272;6.554;2023-05-20T05:17:49;8.90;;;3.30;;
4700;SDS011;8724;51.272;6.554;2023-05-20T05:20:17;5.83;;;3.00;;
4700;SDS011;8724;51.272;6.554;2023-05-20T05:22:46;6.13;;;3.50;;
4700;SDS011;8724;51.272;6.554;2023-05-20T05:25:16;3.53;;;3.20;;
4700;SDS011;8724;51.272;6.554;2023-05-20T05:27:45;4.23;;;2.97;;
4700;SDS011;8724;51.272;6.554;2023-05-20T05:30:16;4.53;;;3.10;;
4700;SDS011;8724;51.272;6.554;2023-05-20T05:32:44;3.20;;;2.80;;
4700;SDS011;8724;51.272;6.554;2023-05-20T05:35:13;4.93;;;3.27;;
4700;SDS011;8724;51.272;6.554;2023-05-20T05:37:41;3.17;;;2.53;;
4700;SDS011;8724;51.272;6.554;2023-05-20T05:40:11;3.57;;;3.07;;
4700;SDS011;8724;51.272;6.554;2023-05-20T05:42:40;3.27;;;2.83;;
4700;SDS011;8724;51.272;6.554;2023-05-20T05:45:10;5.83;;;3.73;;
4700;SDS011;8724;51.272;6.554;2023-05-20T05:47:39;4.53;;;3.00;;
4700;SDS011;8724;51.272;6.554;2023-05-20T05:50:09;4.27;;;3.10;;
4700;SDS011;8724;51.272;6.554;2023-05-20T05:52:37;4.50;;;3.53;;
4700;SDS011;8724;51.272;6.554;2023-05-20T05:55:08;5.93;;;3.60;;
4700;SDS011;8724;51.272;6.554;2023-05-20T05:57:38;5.33;;;3.80;;
4700;SDS011;8724;51.272;6.554;2023-05-20T06:00:08;4.20;;;3.53;;
4700;SDS011;8724;51.272;6.554;2023-05-20T06:02:44;6.00;;;3.23;;
4700;SDS011;8724;51.272;6.554;2023-05-20T06:05:27;3.43;;;2.60;;
4700;SDS011;8724;51.272;6.554;2023-05-20T06:07:56;3.97;;;2.97;;
4700;SDS011;8724;51.272;6.554;2023-05-20T06:10:24;3.73;;;2.53;;
4700;SDS011;8724;51.272;6.554;2023-05-20T06:12:53;3.00;;;2.63;;
4700;SDS011;8724;51.272;6.554;2023-05-20T06:15:24;8.13;;;3.53;;
4700;SDS011;8724;51.272;6.554;2023-05-20T06:17:53;4.40;;;3.03;;
4700;SDS011;8724;51.272;6.554;2023-05-20T06:20:22;4.20;;;2.90;;
4700;SDS011;8724;51.272;6.554;2023-05-20T06:22:50;3.70;;;2.90;;
4700;SDS011;8724;51.272;6.554;2023-05-20T06:25:19;3.00;;;2.27;;
4700;SDS011;8724;51.272;6.554;2023-05-20T06:27:49;3.33;;;2.80;;
4700;SDS011;8724;51.272;6.554;2023-05-20T06:30:18;3.73;;;2.60;;
4700;SDS011;8724;51.272;6.554;2023-05-20T06:32:49;3.30;;;2.63;;
4700;SDS011;8724;51.272;6.554;2023-05-20T06:35:17;4.97;;;2.47;;
4700;SDS011;8724;51.272;6.554;2023-05-20T06:37:46;3.13;;;2.57;;
4700;SDS011;8724;51.272;6.554;2023-05-20T06:40:15;2.37;;;2.17;;
4700;SDS011;8724;51.272;6.554;2023-05-20T06:42:43;2.57;;;2.10;;
4700;SDS011;8724;51.272;6.554;2023-05-20T06:45:12;4.03;;;2.10;;
4700;SDS011;8724;51.272;6.554;2023-05-20T06:47:47;2.77;;;2.37;;
4700;SDS011;8724;51.272;6.554;2023-05-20T06:50:17;2.33;;;2.13;;
4700;SDS011;8724;51.272;6.554;2023-05-20T06:52:45;1.83;;;1.70;;
4700;SDS011;8724;51.272;6.554;2023-05-20T06:55:14;2.70;;;2.20;;
4700;SDS011;8724;51.272;6.554;2023-05-20T06:57:43;4.93;;;2.20;;
4700;SDS011;8724;51.272;6.554;2023-05-20T07:00:14;2.70;;;2.30;;
4700;SDS011;8724;51.272;6.554;2023-05-20T07:02:43;2.40;;;2.30;;
4700;SDS011;8724;51.272;6.554;2023-05-20T07:05:14;3.43;;;2.30;;
4700;SDS011;8724;51.272;6.554;2023-05-20T07:07:44;2.90;;;2.70;;
4700;SDS011;8724;51.272;6.554;2023-05-20T07:10:13;2.90;;;2.60;;
4700;SDS011;8724;51.272;6.554;2023-05-20T07:12:42;4.30;;;2.33;;
4700;SDS011;8724;51.272;6.554;2023-05-20T07:15:10;2.83;;;2.50;;
4700;SDS011;8724;51.272;6.554;2023-05-20T07:17:40;2.90;;;2.60;;
4700;SDS011;8724;51.272;6.554;2023-05-20T07:20:09;2.77;;;2.57;;
4700;SDS011;8724;51.272;6.554;2023-05-20T07:22:39;2.20;;;2.00;;
4700;SDS011;8724;51.272;6.554;2023-05-20T07:25:12;3.83;;;2.57;;
4700;SDS011;8724;51.272;6.554;2023-05-20T07:27:41;3.57;;;2.90;;
4700;SDS011;8724;51.272;6.554;2023-05-20T07:30:10;2.53;;;2.07;;
4700;SDS011;8724;51.272;6.554;2023-05-20T07:32:42;3.77;;;2.37;;
4700;SDS011;8724;51.272;6.554;2023-05-20T07:35:10;3.37;;;2.83;;
4700;SDS011;8724;51.272;6.554;2023-05-20T07:37:40;3.50;;;2.10;;
4700;SDS011;8724;51.272;6.554;2023-05-20T07:40:09;2.27;;;2.07;;
4700;SDS011;8724;51.272;6.554;2023-05-20T07:42:38;2.40;;;2.20;;
4700;SDS011;8724;51.272;6.554;2023-05-20T07:45:08;2.97;;;2.67;;
4700;SDS011;8724;51.272;6.554;2023-05-20T07:47:37;2.47;;;2.30;;
4700;SDS011;8724;51.272;6.554;2023-05-20T07:50:07;5.90;;;2.50;;
4700;SDS011;8724;51.272;6.554;2023-05-20T07:52:36;2.60;;;2.40;;
4700;SDS011;8724;51.272;6.554;2023-05-20T07:55:25;3.30;;;2.20;;
4700;SDS011;8724;51.272;6.554;2023-05-20T07:57:54;4.03;;;2.40;;
4700;SDS011;8724;51.272;6.554;2023-05-20T08:00:24;2.73;;;2.40;;
4700;SDS011;8724;51.272;6.554;2023-05-20T08:02:52;3.90;;;2.73;;
4700;SDS011;8724;51.272;6.554;2023-05-20T08:05:29;3.43;;;2.70;;
4700;SDS011;8724;51.272;6.554;2023-05-20T08:07:58;2.83;;;2.63;;
4700;SDS011;8724;51.272;6.554;2023-05-20T08:10:34;3.17;;;2.80;;
4700;SDS011;8724;51.272;6.554;2023-05-20T08:13:02;4.90;;;2.40;;
4700;SDS011;8724;51.272;6.554;2023-05-20T08:15:31;5.87;;;2.47;;
4700;SDS011;8724;51.272;6.554;2023-05-20T08:18:00;3.03;;;2.73;;
4700;SDS011;8724;51.272;6.554;2023-05-20T08:20:29;2.83;;;2.63;;
4700;SDS011;8724;51.272;6.554;2023-05-20T08:22:57;4.00;;;2.90;;
4700;SDS011;8724;51.272;6.554;2023-05-20T08:25:26;6.07;;;3.00;;
4700;SDS011;8724;51.272;6.554;2023-05-20T08:27:57;3.03;;;2.70;;
4700;SDS011;8724;51.272;6.554;2023-05-20T08:30:29;3.00;;;2.73;;
4700;SDS011;8724;51.272;6.554;2023-05-20T08:32:58;3.43;;;3.13;;
4700;SDS011;8724;51.272;6.554;2023-05-20T08:35:29;2.30;;;2.10;;
4700;SDS011;8724;51.272;6.554;2023-05-20T08:37:58;3.80;;;2.77;;
4700;SDS011;8724;51.272;6.554;2023-05-20T08:40:27;2.90;;;2.67;;
4700;SDS011;8724;51.272;6.554;2023-05-20T08:42:57;4.00;;;2.60;;
4700;SDS011;8724;51.272;6.554;2023-05-20T08:45:27;6.30;;;3.40;;
4700;SDS011;8724;51.272;6.554;2023-05-20T08:48:05;3.00;;;2.80;;
4700;SDS011;8724;51.272;6.554;2023-05-20T08:50:33;3.30;;;3.00;;
4700;SDS011;8724;51.272;6.554;2023-05-20T08:53:02;5.13;;;3.53;;
4700;SDS011;8724;51.272;6.554;2023-05-20T08:55:34;2.73;;;2.53;;
4700;SDS011;8724;51.272;6.554;2023-05-20T08:58:10;4.27;;;3.07;;
4700;SDS011;8724;51.272;6.554;2023-05-20T09:00:41;2.97;;;2.67;;
4700;SDS011;8724;51.272;6.554;2023-05-20T09:03:09;3.80;;;3.27;;
4700;SDS011;8724;51.272;6.554;2023-05-20T09:05:38;2.83;;;2.63;;
4700;SDS011;8724;51.272;6.554;2023-05-20T09:08:06;4.93;;;3.70;;
4700;SDS011;8724;51.272;6.554;2023-05-20T09:10:37;3.53;;;3.23;;
4700;SDS011;8724;51.272;6.554;2023-05-20T09:13:07;2.90;;;2.70;;
4700;SDS011;8724;51.272;6.554;2023-05-20T09:15:38;5.33;;;3.10;;
4700;SDS011;8724;51.272;6.554;2023-05-20T09:18:07;4.83;;;3.13;;
4700;SDS011;8724;51.272;6.554;2023-05-20T09:20:35;3.50;;;3.20;;
4700;SDS011;8724;51.272;6.554;2023-05-20T09:23:07;3.87;;;2.87;;
4700;SDS011;8724;51.272;6.554;2023-05-20T09:25:36;3.10;;;2.80;;
4700;SDS011;8724;51.272;6.554;2023-05-20T09:28:05;3.40;;;3.10;;
4700;SDS011;8724;51.272;6.554;2023-05-20T09:30:35;4.53;;;3.53;;
4700;SDS011;8724;51.272;6.554;2023-05-20T09:33:05;2.80;;;2.60;;
4700;SDS011;8724;51.272;6.554;2023-05-20T09:35:35;4.40;;;2.93;;
4700;SDS011;8724;51.272;6.554;2023-05-20T09:38:04;6.43;;;4.00;;
4700;SDS011;8724;51.272;6.554;2023-05-20T09:40:34;4.47;;;3.60;;
4700;SDS011;8724;51.272;6.554;2023-05-20T09:43:06;8.47;;;4.73;;
4700;SDS011;8724;51.272;6.554;2023-05-20T09:45:36;3.57;;;3.27;;
4700;SDS011;8724;51.272;6.554;2023-05-20T09:48:06;5.10;;;3.30;;
4700;SDS011;8724;51.272;6.554;2023-05-20T09:50:37;4.23;;;3.73;;
4700;SDS011;8724;51.272;6.554;2023-05-20T09:53:06;5.80;;;3.23;;
4700;SDS011;8724;51.272;6.554;2023-05-20T09:55:37;3.30;;;3.00;;
4700;SDS011;8724;51.272;6.554;2023-05-20T09:58:06;3.90;;;3.50;;
4700;SDS011;8724;51.272;6.554;2023-05-20T10:00:41;4.17;;;3.77;;
4700;SDS011;8724;51.272;6.554;2023-05-20T10:03:10;4.17;;;3.87;;
4700;SDS011;8724;51.272;6.554;2023-05-20T10:05:40;4.60;;;3.23;;
4700;SDS011;8724;51.272;6.554;2023-05-20T10:08:29;3.93;;;3.47;;
4700;SDS011;8724;51.272;6.554;2023-05-20T10:11:06;5.27;;;3.80;;
4700;SDS011;8724;51.272;6.554;2023-05-20T10:14:02;3.37;;;3.10;;
4700;SDS011;8724;51.272;6.554;2023-05-20T10:16:48;5.13;;;4.30;;
4700;SDS011;8724;51.272;6.554;2023-05-20T10:19:26;4.40;;;4.00;;
4700;SDS011;8724;51.272;6.554;2023-05-20T10:21:57;4.57;;;3.90;;
4700;SDS011;8724;51.272;6.554;2023-05-20T10:24:28;6.97;;;4.17;;
4700;SDS011;8724;51.272;6.554;2023-05-20T10:26:58;4.33;;;3.93;;
4700;SDS011;8724;51.272;6.554;2023-05-20T10:29:28;5.43;;;3.53;;
4700;SDS011;8724;51.272;6.554;2023-05-20T10:32:08;4.80;;;4.27;;
4700;SDS011;8724;51.272;6.554;2023-05-20T10:34:45;6.23;;;5.37;;
4700;SDS011;8724;51.272;6.554;2023-05-20T10:37:25;5.07;;;4.37;;
4700;SDS011;8724;51.272;6.554;2023-05-20T10:40:07;5.23;;;4.60;;
4700;SDS011;8724;51.272;6.554;2023-05-20T10:42:38;4.60;;;4.17;;
4700;SDS011;8724;51.272;6.554;2023-05-20T10:45:07;6.57;;;3.97;;
4700;SDS011;8724;51.272;6.554;2023-05-20T10:47:40;6.67;;;4.33;;
4700;SDS011;8724;51.272;6.554;2023-05-20T10:50:28;4.90;;;4.40;;
4700;SDS011;8724;51.272;6.554;2023-05-20T10:53:03;5.80;;;4.70;;
4700;SDS011;8724;51.272;6.554;2023-05-20T10:55:39;10.83;;;4.90;;
4700;SDS011;8724;51.272;6.554;2023-05-20T10:58:08;5.93;;;5.00;;
4700;SDS011;8724;51.272;6.554;2023-05-20T11:00:37;5.80;;;5.20;;
4700;SDS011;8724;51.272;6.554;2023-05-20T11:03:06;9.60;;;5.37;;
4700;SDS011;8724;51.272;6.554;2023-05-20T11:05:37;5.20;;;4.23;;
4700;SDS011;8724;51.272;6.554;2023-05-20T11:08:07;5.40;;;4.53;;
4700;SDS011;8724;51.272;6.554;2023-05-20T11:10:54;4.83;;;4.30;;
4700;SDS011;8724;51.272;6.554;2023-05-20T11:13:24;5.07;;;4.60;;
4700;SDS011;8724;51.272;6.554;2023-05-20T11:15:53;5.43;;;4.07;;
4700;SDS011;8724;51.272;6.554;2023-05-20T11:18:22;4.60;;;3.83;;
4700;SDS011;8724;51.272;6.554;2023-05-20T11:20:52;5.50;;;4.43;;
4700;SDS011;8724;51.272;6.554;2023-05-20T11:23:21;4.70;;;4.13;;
4700;SDS011;8724;51.272;6.554;2023-05-20T11:25:50;4.20;;;3.80;;
4700;SDS011;8724;51.272;6.554;2023-05-20T11:28:19;4.27;;;3.87;;
4700;SDS011;8724;51.272;6.554;2023-05-20T11:30:49;4.60;;;4.20;;
4700;SDS011;8724;51.272;6.554;2023-05-20T11:33:19;4.63;;;4.23;;
4700;SDS011;8724;51.272;6.554;2023-05-20T11:35:49;5.63;;;3.73;;
4700;SDS011;8724;51.272;6.554;2023-05-20T11:38:20;5.23;;;4.73;;
4700;SDS011;8724;51.272;6.554;2023-05-20T11:40:50;4.97;;;4.30;;
4700;SDS011;8724;51.272;6.554;2023-05-20T11:43:21;4.20;;;3.80;;
4700;SDS011;8724;51.272;6.554;2023-05-20T11:45:54;4.40;;;4.00;;
4700;SDS011;8724;51.272;6.554;2023-05-20T11:48:25;4.83;;;4.33;;
4700;SDS011;8724;51.272;6.554;2023-05-20T11:50:54;5.03;;;4.57;;
4700;SDS011;8724;51.272;6.554;2023-05-20T11:53:28;4.90;;;4.40;;
4700;SDS011;8724;51.272;6.554;2023-05-20T11:55:57;8.53;;;4.13;;
4700;SDS011;8724;51.272;6.554;2023-05-20T11:58:28;4.70;;;4.30;;
4700;SDS011;8724;51.272;6.554;2023-05-20T12:00:57;4.83;;;4.37;;
4700;SDS011;8724;51.272;6.554;2023-05-20T12:03:46;4.43;;;3.90;;
4700;SDS011;8724;51.272;6.554;2023-05-20T12:06:15;7.53;;;3.73;;
4700;SDS011;8724;51.272;6.554;2023-05-20T12:08:45;3.90;;;3.40;;
4700;SDS011;8724;51.272;6.554;2023-05-20T12:11:14;4.03;;;3.60;;
4700;SDS011;8724;51.272;6.554;2023-05-20T12:13:42;4.60;;;4.10;;
4700;SDS011;8724;51.272;6.554;2023-05-20T12:16:11;7.00;;;3.33;;
4700;SDS011;8724;51.272;6.554;2023-05-20T12:18:40;3.50;;;3.20;;
4700;SDS011;8724;51.272;6.554;2023-05-20T12:21:09;5.70;;;4.17;;
4700;SDS011;8724;51.272;6.554;2023-05-20T12:23:37;5.13;;;3.50;;
4700;SDS011;8724;51.272;6.554;2023-05-20T12:26:07;4.50;;;3.87;;
4700;SDS011;8724;51.272;6.554;2023-05-20T12:28:36;5.23;;;3.70;;
4700;SDS011;8724;51.272;6.554;2023-05-20T12:31:05;3.67;;;3.37;;
4700;SDS011;8724;51.272;6.554;2023-05-20T12:33:33;3.40;;;3.20;;
4700;SDS011;8724;51.272;6.554;2023-05-20T12:36:02;4.07;;;3.50;;
4700;SDS011;8724;51.272;6.554;2023-05-20T12:38:31;6.13;;;4.10;;
4700;SDS011;8724;51.272;6.554;2023-05-20T12:41:00;4.10;;;3.80;;
4700;SDS011;8724;51.272;6.554;2023-05-20T12:43:30;4.00;;;3.40;;
4700;SDS011;8724;51.272;6.554;2023-05-20T12:46:02;5.37;;;3.80;;
4700;SDS011;8724;51.272;6.554;2023-05-20T12:48:31;4.03;;;3.53;;
4700;SDS011;8724;51.272;6.554;2023-05-20T12:51:00;4.30;;;3.90;;
4700;SDS011;8724;51.272;6.554;2023-05-20T12:53:28;5.57;;;3.70;;
4700;SDS011;8724;51.272;6.554;2023-05-20T12:55:56;3.60;;;3.00;;
4700;SDS011;8724;51.272;6.554;2023-05-20T12:58:25;4.40;;;3.80;;
4700;SDS011;8724;51.272;6.554;2023-05-20T13:00:55;3.73;;;3.43;;
4700;SDS011;8724;51.272;6.554;2023-05-20T13:03:23;3.67;;;3.37;;
4700;SDS011;8724;51.272;6.554;2023-05-20T13:05:52;3.50;;;3.20;;
4700;SDS011;8724;51.272;6.554;2023-05-20T13:08:20;4.97;;;3.10;;
4700;SDS011;8724;51.272;6.554;2023-05-20T13:10:49;4.57;;;3.77;;
4700;SDS011;8724;51.272;6.554;2023-05-20T13:13:17;3.70;;;3.40;;
4700;SDS011;8724;51.272;6.554;2023-05-20T13:15:47;3.10;;;2.90;;
4700;SDS011;8724;51.272;6.554;2023-05-20T13:18:17;4.37;;;3.50;;
4700;SDS011;8724;51.272;6.554;2023-05-20T13:20:46;3.87;;;3.57;;
4700;SDS011;8724;51.272;6.554;2023-05-20T13:23:14;4.20;;;3.47;;
4700;SDS011;8724;51.272;6.554;2023-05-20T13:25:43;3.97;;;3.57;;
4700;SDS011;8724;51.272;6.554;2023-05-20T13:28:12;2.97;;;2.77;;
4700;SDS011;8724;51.272;6.554;2023-05-20T13:30:44;5.33;;;4.37;;
4700;SDS011;8724;51.272;6.554;2023-05-20T13:33:12;3.33;;;3.03;;
4700;SDS011;8724;51.272;6.554;2023-05-20T13:35:42;3.97;;;3.10;;
4700;SDS011;8724;51.272;6.554;2023-05-20T13:38:11;3.83;;;3.47;;
4700;SDS011;8724;51.272;6.554;2023-05-20T13:40:39;3.57;;;3.27;;
4700;SDS011;8724;51.272;6.554;2023-05-20T13:43:08;3.60;;;3.30;;
4700;SDS011;8724;51.272;6.554;2023-05-20T13:45:36;3.83;;;3.27;;
4700;SDS011;8724;51.272;6.554;2023-05-20T13:48:05;7.10;;;3.30;;
4700;SDS011;8724;51.272;6.554;2023-05-20T13:50:34;6.30;;;2.63;;
4700;SDS011;8724;51.272;6.554;2023-05-20T13:53:04;2.60;;;2.40;;
4700;SDS011;8724;51.272;6.554;2023-05-20T13:55:33;3.50;;;3.20;;
4700;SDS011;8724;51.272;6.554;2023-05-20T13:58:02;3.37;;;3.07;;
4700;SDS011;8724;51.272;6.554;2023-05-20T14:00:31;2.70;;;2.50;;
4700;SDS011;8724;51.272;6.554;2023-05-20T14:03:00;3.63;;;3.33;;
4700;SDS011;8724;51.272;6.554;2023-05-20T14:05:30;3.70;;;3.40;;
4700;SDS011;8724;51.272;6.554;2023-05-20T14:07:59;3.13;;;2.33;;
4700;SDS011;8724;51.272;6.554;2023-05-20T14:10:30;2.70;;;2.50;;
4700;SDS011;8724;51.272;6.554;2023-05-20T14:12:59;5.50;;;3.10;;
4700;SDS011;8724;51.272;6.554;2023-05-20T14:15:27;2.57;;;2.37;;
4700;SDS011;8724;51.272;6.554;2023-05-20T14:17:57;3.60;;;2.63;;
4700;SDS011;8724;51.272;6.554;2023-05-20T14:20:26;2.80;;;2.60;;
4700;SDS011;8724;51.272;6.554;2023-05-20T14:22:54;3.80;;;3.23;;
4700;SDS011;8724;51.272;6.554;2023-05-20T14:25:23;2.90;;;2.70;;
4700;SDS011;8724;51.272;6.554;2023-05-20T14:27:53;2.50;;;2.40;;
4700;SDS011;8724;51.272;6.554;2023-05-20T14:30:22;3.00;;;2.80;;
4700;SDS011;8724;51.272;6.554;2023-05-20T14:32:50;3.37;;;3.07;;
4700;SDS011;8724;51.272;6.554;2023-05-20T14:35:19;3.33;;;2.87;;
4700;SDS011;8724;51.272;6.554;2023-05-20T14:37:48;3.27;;;2.97;;
4700;SDS011;8724;51.272;6.554;2023-05-20T14:40:16;2.67;;;2.47;;
4700;SDS011;8724;51.272;6.554;2023-05-20T14:42:45;4.83;;;3.10;;
4700;SDS011;8724;51.272;6.554;2023-05-20T14:45:15;6.00;;;3.30;;
4700;SDS011;8724;51.272;6.554;2023-05-20T14:47:44;4.53;;;2.80;;
4700;SDS011;8724;51.272;6.554;2023-05-20T14:50:13;3.27;;;2.73;;
4700;SDS011;8724;51.272;6.554;2023-05-20T14:52:42;3.03;;;2.83;;
4700;SDS011;8724;51.272;6.554;2023-05-20T14:55:10;3.53;;;2.97;;
4700;SDS011;8724;51.272;6.554;2023-05-20T14:57:39;2.60;;;2.40;;
4700;SDS011;8724;51.272;6.554;2023-05-20T15:00:08;2.80;;;2.37;;
4700;SDS011;8724;51.272;6.554;2023-05-20T15:02:39;2.80;;;2.60;;
4700;SDS011;8724;51.272;6.554;2023-05-20T15:05:08;3.70;;;2.77;;
4700;SDS011;8724;51.272;6.554;2023-05-20T15:07:37;2.80;;;2.60;;
4700;SDS011;8724;51.272;6.554;2023-05-20T15:10:06;3.00;;;2.80;;
4700;SDS011;8724;51.272;6.554;2023-05-20T15:12:35;3.77;;;2.60;;
4700;SDS011;8724;51.272;6.554;2023-05-20T15:15:04;3.37;;;2.93;;
4700;SDS011;8724;51.272;6.554;2023-05-20T15:17:33;5.60;;;3.17;;
4700;SDS011;8724;51.272;6.554;2023-05-20T15:20:04;7.80;;;7.10;;
4700;SDS011;8724;51.272;6.554;2023-05-20T15:22:33;13.73;;;11.77;;
4700;SDS011;8724;51.272;6.554;2023-05-20T15:25:02;17.40;;;13.50;;
4700;SDS011;8724;51.272;6.554;2023-05-20T15:27:31;24.30;;;21.23;;
4700;SDS011;8724;51.272;6.554;2023-05-20T15:30:00;23.80;;;18.53;;
4700;SDS011;8724;51.272;6.554;2023-05-20T15:32:28;50.30;;;35.67;;